Aérodrome :
LOGIN :

S'inscrire | Disclaimer

   EN    FR    IT 

 










Légende :    VFR   VFR Marginal   IFR   IFR Intensif   IFR Très Intensif
Visi : 
Plafond : 
>= 8 km
>= 3000ft
5 à 8 km
1000 à 3000 ft
1500m à 5 km
500 à 1000 ft
800 à 1500m
200 à 500 ft
< 800m
< 200 ft
Symboles :   Orages  Brouillard  Fortes neiges  Fortes précipitations  Vent > 20 kt
SIGMETs :   Divers  Orages  Givrage  Turbulence  Onde Orograph.  Cendres Volcan.






- Altitude de l'aérodrome : 408 ft
- Code IATA : FKB


EDSB - Karlsruhe Baden Baden

DERNIER METAR :
  • 071320Z 21012KT 9999 VCSH SCT031TCU 10/08 Q1018

METARs EXPIRÉS :
  • 071250Z 21012KT 9999 VCSH FEW009 SCT032TCU 09/08 Q1018
  • 071220Z 20014KT 9999 VCSH FEW030 BKN048 BKN055 09/08 Q1018
  • 071150Z 21013KT 9999 VCSH FEW022 BKN043 OVC051 09/08 Q1018 RERA
  • 071120Z 22011KT 8000 RA BKN025 OVC036 09/08 Q1018
  • 071050Z 21012KT 9999 -RA FEW028 BKN034 BKN039 09/08 Q1018

TAF TAF EDSB
Valide du 07 à 12h jusqu'au 08 à 12h UTC


071100Z 0712/0812 21009KT 9999 BKN040
TEMPO 0808/0812 21015G25KT



MET'MAP, la Météo Aéronautique d'un coup d'oeil ! - Copyright ORBIFLY Décembre 2007 - Disclaimer

ORBIFLY MET'MAP TEAM :

Programmation & Développement : Alexandra Zaïnal
Sur une idée originale de : Baudouin d'Aumeries
Assistance à la programmation : Marc-Olivier Méhu
Soutien technique & logistique : Manuel Goepfert

Contact : metmap@orbifly.com




SOURCES & CREDITS :

   NOAA